sensor_id;sensor_type;location;lat;lon;timestamp;P1;durP1;ratioP1;P2;durP2;ratioP2
28455;SDS011;15682;56.742;38.866;2023-05-07T00:01:25;5.1;;;1.7;;
28455;SDS011;15682;56.742;38.866;2023-05-07T00:03:25;4.1;;;1.6;;
28455;SDS011;15682;56.742;38.866;2023-05-07T00:05:25;2.4;;;1.5;;
28455;SDS011;15682;56.742;38.866;2023-05-07T00:07:24;2.3;;;1.5;;
28455;SDS011;15682;56.742;38.866;2023-05-07T00:09:24;4.2;;;1.7;;
28455;SDS011;15682;56.742;38.866;2023-05-07T00:11:24;3.7;;;1.6;;
28455;SDS011;15682;56.742;38.866;2023-05-07T00:13:24;3.3;;;1.7;;
28455;SDS011;15682;56.742;38.866;2023-05-07T00:15:24;2.5;;;1.5;;
28455;SDS011;15682;56.742;38.866;2023-05-07T00:17:24;3.3;;;1.7;;
28455;SDS011;15682;56.742;38.866;2023-05-07T00:19:24;3.2;;;1.6;;
28455;SDS011;15682;56.742;38.866;2023-05-07T00:21:23;3.3;;;1.7;;
28455;SDS011;15682;56.742;38.866;2023-05-07T00:23:23;3.2;;;1.7;;
28455;SDS011;15682;56.742;38.866;2023-05-07T00:25:23;6.4;;;1.7;;
28455;SDS011;15682;56.742;38.866;2023-05-07T00:27:24;2.1;;;1.5;;
28455;SDS011;15682;56.742;38.866;2023-05-07T00:29:23;3.8;;;1.5;;
28455;SDS011;15682;56.742;38.866;2023-05-07T00:31:23;4.1;;;1.6;;
28455;SDS011;15682;56.742;38.866;2023-05-07T00:33:23;2.7;;;1.5;;
28455;SDS011;15682;56.742;38.866;2023-05-07T00:35:23;3.0;;;1.6;;
28455;SDS011;15682;56.742;38.866;2023-05-07T00:37:22;4.3;;;2.0;;
28455;SDS011;15682;56.742;38.866;2023-05-07T00:39:22;5.1;;;1.6;;
28455;SDS011;15682;56.742;38.866;2023-05-07T00:41:22;3.8;;;1.7;;
28455;SDS011;15682;56.742;38.866;2023-05-07T00:43:22;4.0;;;1.8;;
28455;SDS011;15682;56.742;38.866;2023-05-07T00:45:22;4.2;;;1.6;;
28455;SDS011;15682;56.742;38.866;2023-05-07T00:47:22;4.0;;;1.9;;
28455;SDS011;15682;56.742;38.866;2023-05-07T00:49:22;4.1;;;1.9;;
28455;SDS011;15682;56.742;38.866;2023-05-07T00:51:22;3.7;;;1.9;;
28455;SDS011;15682;56.742;38.866;2023-05-07T00:53:22;2.7;;;1.8;;
28455;SDS011;15682;56.742;38.866;2023-05-07T00:55:22;4.2;;;1.8;;
28455;SDS011;15682;56.742;38.866;2023-05-07T00:57:21;5.3;;;1.8;;
28455;SDS011;15682;56.742;38.866;2023-05-07T00:59:21;4.0;;;1.6;;
28455;SDS011;15682;56.742;38.866;2023-05-07T01:01:21;3.5;;;1.6;;
28455;SDS011;15682;56.742;38.866;2023-05-07T01:03:21;4.2;;;1.7;;
28455;SDS011;15682;56.742;38.866;2023-05-07T01:05:21;4.0;;;1.6;;
28455;SDS011;15682;56.742;38.866;2023-05-07T01:07:21;5.2;;;1.6;;
28455;SDS011;15682;56.742;38.866;2023-05-07T01:09:21;4.0;;;2.0;;
28455;SDS011;15682;56.742;38.866;2023-05-07T01:11:20;4.2;;;1.8;;
28455;SDS011;15682;56.742;38.866;2023-05-07T01:13:20;4.3;;;1.5;;
28455;SDS011;15682;56.742;38.866;2023-05-07T01:15:20;4.0;;;1.5;;
28455;SDS011;15682;56.742;38.866;2023-05-07T01:17:20;4.7;;;1.9;;
28455;SDS011;15682;56.742;38.866;2023-05-07T01:19:20;3.5;;;1.6;;
28455;SDS011;15682;56.742;38.866;2023-05-07T01:21:20;2.6;;;1.7;;
28455;SDS011;15682;56.742;38.866;2023-05-07T01:23:20;4.9;;;1.7;;
28455;SDS011;15682;56.742;38.866;2023-05-07T01:25:20;5.1;;;1.7;;
28455;SDS011;15682;56.742;38.866;2023-05-07T01:27:20;2.7;;;1.6;;
28455;SDS011;15682;56.742;38.866;2023-05-07T01:29:19;5.2;;;1.7;;
28455;SDS011;15682;56.742;38.866;2023-05-07T01:31:19;4.5;;;1.8;;
28455;SDS011;15682;56.742;38.866;2023-05-07T01:33:20;3.9;;;1.9;;
28455;SDS011;15682;56.742;38.866;2023-05-07T01:35:20;5.1;;;1.7;;
28455;SDS011;15682;56.742;38.866;2023-05-07T01:37:19;4.4;;;1.7;;
28455;SDS011;15682;56.742;38.866;2023-05-07T01:39:19;4.1;;;1.9;;
28455;SDS011;15682;56.742;38.866;2023-05-07T01:41:19;4.4;;;1.6;;
28455;SDS011;15682;56.742;38.866;2023-05-07T01:43:19;5.6;;;1.6;;
28455;SDS011;15682;56.742;38.866;2023-05-07T01:45:18;5.6;;;1.9;;
28455;SDS011;15682;56.742;38.866;2023-05-07T01:47:18;6.5;;;1.9;;
28455;SDS011;15682;56.742;38.866;2023-05-07T01:49:18;7.6;;;2.0;;
28455;SDS011;15682;56.742;38.866;2023-05-07T01:51:18;7.7;;;1.7;;
28455;SDS011;15682;56.742;38.866;2023-05-07T01:53:18;7.0;;;2.4;;
28455;SDS011;15682;56.742;38.866;2023-05-07T01:55:18;6.8;;;2.0;;
28455;SDS011;15682;56.742;38.866;2023-05-07T01:57:18;3.1;;;1.6;;
28455;SDS011;15682;56.742;38.866;2023-05-07T01:59:18;12.2;;;2.2;;
28455;SDS011;15682;56.742;38.866;2023-05-07T02:01:17;7.8;;;2.0;;
28455;SDS011;15682;56.742;38.866;2023-05-07T02:03:17;4.9;;;2.1;;
28455;SDS011;15682;56.742;38.866;2023-05-07T02:05:17;3.4;;;1.7;;
28455;SDS011;15682;56.742;38.866;2023-05-07T02:07:17;6.7;;;2.0;;
28455;SDS011;15682;56.742;38.866;2023-05-07T02:09:17;5.1;;;1.8;;
28455;SDS011;15682;56.742;38.866;2023-05-07T02:11:17;5.5;;;2.0;;
28455;SDS011;15682;56.742;38.866;2023-05-07T02:13:17;6.6;;;1.9;;
28455;SDS011;15682;56.742;38.866;2023-05-07T02:15:17;9.2;;;2.4;;
28455;SDS011;15682;56.742;38.866;2023-05-07T02:17:17;4.3;;;1.9;;
28455;SDS011;15682;56.742;38.866;2023-05-07T02:19:17;5.4;;;2.1;;
28455;SDS011;15682;56.742;38.866;2023-05-07T02:21:16;6.3;;;2.0;;
28455;SDS011;15682;56.742;38.866;2023-05-07T02:23:17;3.1;;;1.9;;
28455;SDS011;15682;56.742;38.866;2023-05-07T02:25:16;3.4;;;1.9;;
28455;SDS011;15682;56.742;38.866;2023-05-07T02:27:16;4.0;;;2.1;;
28455;SDS011;15682;56.742;38.866;2023-05-07T02:29:16;3.0;;;1.9;;
28455;SDS011;15682;56.742;38.866;2023-05-07T02:31:16;8.4;;;2.1;;
28455;SDS011;15682;56.742;38.866;2023-05-07T02:33:16;6.3;;;2.1;;
28455;SDS011;15682;56.742;38.866;2023-05-07T02:35:16;5.5;;;1.8;;
28455;SDS011;15682;56.742;38.866;2023-05-07T02:37:16;9.9;;;2.6;;
28455;SDS011;15682;56.742;38.866;2023-05-07T02:39:16;6.0;;;1.9;;
28455;SDS011;15682;56.742;38.866;2023-05-07T02:41:15;3.1;;;1.8;;
28455;SDS011;15682;56.742;38.866;2023-05-07T02:43:15;2.8;;;1.5;;
28455;SDS011;15682;56.742;38.866;2023-05-07T02:45:15;4.4;;;1.8;;
28455;SDS011;15682;56.742;38.866;2023-05-07T02:47:15;6.6;;;1.9;;
28455;SDS011;15682;56.742;38.866;2023-05-07T02:49:15;10.5;;;2.1;;
28455;SDS011;15682;56.742;38.866;2023-05-07T02:51:16;3.9;;;1.6;;
28455;SDS011;15682;56.742;38.866;2023-05-07T02:53:15;4.1;;;1.8;;
28455;SDS011;15682;56.742;38.866;2023-05-07T02:55:15;3.6;;;1.6;;
28455;SDS011;15682;56.742;38.866;2023-05-07T02:57:15;2.8;;;1.7;;
28455;SDS011;15682;56.742;38.866;2023-05-07T02:59:15;4.6;;;1.7;;
28455;SDS011;15682;56.742;38.866;2023-05-07T03:01:15;3.5;;;1.7;;
28455;SDS011;15682;56.742;38.866;2023-05-07T03:03:15;5.9;;;1.9;;
28455;SDS011;15682;56.742;38.866;2023-05-07T03:05:14;3.0;;;1.7;;
28455;SDS011;15682;56.742;38.866;2023-05-07T03:07:14;4.3;;;1.6;;
28455;SDS011;15682;56.742;38.866;2023-05-07T03:09:14;6.0;;;1.5;;
28455;SDS011;15682;56.742;38.866;2023-05-07T03:11:14;4.2;;;1.7;;
28455;SDS011;15682;56.742;38.866;2023-05-07T03:13:14;8.2;;;1.6;;
28455;SDS011;15682;56.742;38.866;2023-05-07T03:15:14;5.1;;;2.0;;
28455;SDS011;15682;56.742;38.866;2023-05-07T03:17:14;3.8;;;1.6;;
28455;SDS011;15682;56.742;38.866;2023-05-07T03:19:14;3.5;;;1.6;;
28455;SDS011;15682;56.742;38.866;2023-05-07T03:21:14;3.2;;;1.4;;
28455;SDS011;15682;56.742;38.866;2023-05-07T03:23:14;7.3;;;1.6;;
28455;SDS011;15682;56.742;38.866;2023-05-07T03:25:14;9.5;;;2.8;;
28455;SDS011;15682;56.742;38.866;2023-05-07T03:27:14;5.0;;;1.9;;
28455;SDS011;15682;56.742;38.866;2023-05-07T03:29:14;5.2;;;1.9;;
28455;SDS011;15682;56.742;38.866;2023-05-07T03:31:14;4.1;;;1.6;;
28455;SDS011;15682;56.742;38.866;2023-05-07T03:33:14;3.6;;;1.5;;
28455;SDS011;15682;56.742;38.866;2023-05-07T03:35:14;4.3;;;1.5;;
28455;SDS011;15682;56.742;38.866;2023-05-07T03:37:14;5.7;;;1.8;;
28455;SDS011;15682;56.742;38.866;2023-05-07T03:39:14;4.0;;;1.5;;
28455;SDS011;15682;56.742;38.866;2023-05-07T03:41:14;13.1;;;1.6;;
28455;SDS011;15682;56.742;38.866;2023-05-07T03:43:14;5.4;;;1.9;;
28455;SDS011;15682;56.742;38.866;2023-05-07T03:45:14;4.0;;;1.6;;
28455;SDS011;15682;56.742;38.866;2023-05-07T03:47:14;5.4;;;1.5;;
28455;SDS011;15682;56.742;38.866;2023-05-07T03:49:14;2.7;;;1.5;;
28455;SDS011;15682;56.742;38.866;2023-05-07T03:51:15;2.6;;;1.3;;
28455;SDS011;15682;56.742;38.866;2023-05-07T03:53:14;4.1;;;1.4;;
28455;SDS011;15682;56.742;38.866;2023-05-07T03:55:14;7.8;;;1.7;;
28455;SDS011;15682;56.742;38.866;2023-05-07T03:57:14;4.4;;;1.6;;
28455;SDS011;15682;56.742;38.866;2023-05-07T03:59:14;4.5;;;1.7;;
28455;SDS011;15682;56.742;38.866;2023-05-07T04:01:15;4.5;;;1.5;;
28455;SDS011;15682;56.742;38.866;2023-05-07T04:03:15;3.4;;;1.4;;
28455;SDS011;15682;56.742;38.866;2023-05-07T04:05:15;2.4;;;1.3;;
28455;SDS011;15682;56.742;38.866;2023-05-07T04:07:15;2.5;;;1.3;;
28455;SDS011;15682;56.742;38.866;2023-05-07T04:09:15;3.4;;;1.2;;
28455;SDS011;15682;56.742;38.866;2023-05-07T04:11:15;3.8;;;1.8;;
28455;SDS011;15682;56.742;38.866;2023-05-07T04:13:15;3.5;;;1.6;;
28455;SDS011;15682;56.742;38.866;2023-05-07T04:15:15;4.5;;;1.3;;
28455;SDS011;15682;56.742;38.866;2023-05-07T04:17:16;3.1;;;1.6;;
28455;SDS011;15682;56.742;38.866;2023-05-07T04:19:16;3.0;;;1.2;;
28455;SDS011;15682;56.742;38.866;2023-05-07T04:21:17;4.4;;;2.2;;
28455;SDS011;15682;56.742;38.866;2023-05-07T04:23:16;2.8;;;1.3;;
28455;SDS011;15682;56.742;38.866;2023-05-07T04:25:16;4.8;;;1.5;;
28455;SDS011;15682;56.742;38.866;2023-05-07T04:27:17;4.5;;;1.3;;
28455;SDS011;15682;56.742;38.866;2023-05-07T04:29:17;3.2;;;1.3;;
28455;SDS011;15682;56.742;38.866;2023-05-07T04:31:17;5.2;;;2.3;;
28455;SDS011;15682;56.742;38.866;2023-05-07T04:33:18;4.3;;;1.8;;
28455;SDS011;15682;56.742;38.866;2023-05-07T04:35:18;3.2;;;1.5;;
28455;SDS011;15682;56.742;38.866;2023-05-07T04:37:18;4.2;;;1.2;;
28455;SDS011;15682;56.742;38.866;2023-05-07T04:39:19;3.4;;;1.4;;
28455;SDS011;15682;56.742;38.866;2023-05-07T04:41:19;2.1;;;1.1;;
28455;SDS011;15682;56.742;38.866;2023-05-07T04:43:19;4.1;;;1.2;;
28455;SDS011;15682;56.742;38.866;2023-05-07T04:45:20;2.9;;;1.2;;
28455;SDS011;15682;56.742;38.866;2023-05-07T04:47:20;3.5;;;1.3;;
28455;SDS011;15682;56.742;38.866;2023-05-07T04:49:20;2.7;;;1.2;;
28455;SDS011;15682;56.742;38.866;2023-05-07T04:51:21;2.9;;;1.5;;
28455;SDS011;15682;56.742;38.866;2023-05-07T04:53:21;5.0;;;1.5;;
28455;SDS011;15682;56.742;38.866;2023-05-07T04:55:21;3.4;;;1.4;;
28455;SDS011;15682;56.742;38.866;2023-05-07T04:57:22;5.6;;;1.6;;
28455;SDS011;15682;56.742;38.866;2023-05-07T04:59:22;3.1;;;1.2;;
28455;SDS011;15682;56.742;38.866;2023-05-07T05:01:23;2.8;;;1.4;;
28455;SDS011;15682;56.742;38.866;2023-05-07T05:03:23;2.4;;;1.3;;
28455;SDS011;15682;56.742;38.866;2023-05-07T05:05:23;2.9;;;1.3;;
28455;SDS011;15682;56.742;38.866;2023-05-07T05:07:24;3.6;;;1.1;;
28455;SDS011;15682;56.742;38.866;2023-05-07T05:09:24;3.0;;;1.1;;
28455;SDS011;15682;56.742;38.866;2023-05-07T05:11:24;3.6;;;1.4;;
28455;SDS011;15682;56.742;38.866;2023-05-07T05:13:25;3.2;;;1.5;;
28455;SDS011;15682;56.742;38.866;2023-05-07T05:15:25;7.5;;;1.8;;
28455;SDS011;15682;56.742;38.866;2023-05-07T05:17:26;3.8;;;1.4;;
28455;SDS011;15682;56.742;38.866;2023-05-07T05:19:26;2.7;;;1.2;;
28455;SDS011;15682;56.742;38.866;2023-05-07T05:21:26;2.4;;;1.2;;
28455;SDS011;15682;56.742;38.866;2023-05-07T05:23:27;3.5;;;1.2;;
28455;SDS011;15682;56.742;38.866;2023-05-07T05:25:27;3.5;;;1.3;;
28455;SDS011;15682;56.742;38.866;2023-05-07T05:27:28;2.2;;;1.2;;
28455;SDS011;15682;56.742;38.866;2023-05-07T05:29:28;3.2;;;1.2;;
28455;SDS011;15682;56.742;38.866;2023-05-07T05:31:29;2.5;;;1.1;;
28455;SDS011;15682;56.742;38.866;2023-05-07T05:33:29;3.0;;;1.2;;
28455;SDS011;15682;56.742;38.866;2023-05-07T05:35:29;3.1;;;1.1;;
28455;SDS011;15682;56.742;38.866;2023-05-07T05:37:30;3.0;;;1.3;;
28455;SDS011;15682;56.742;38.866;2023-05-07T05:39:30;6.0;;;1.4;;
28455;SDS011;15682;56.742;38.866;2023-05-07T05:41:31;3.7;;;1.1;;
28455;SDS011;15682;56.742;38.866;2023-05-07T05:43:31;2.6;;;1.1;;
28455;SDS011;15682;56.742;38.866;2023-05-07T05:45:31;3.8;;;1.1;;
28455;SDS011;15682;56.742;38.866;2023-05-07T05:47:32;5.7;;;1.4;;
28455;SDS011;15682;56.742;38.866;2023-05-07T05:49:32;4.0;;;1.1;;
28455;SDS011;15682;56.742;38.866;2023-05-07T05:51:33;4.9;;;1.2;;
28455;SDS011;15682;56.742;38.866;2023-05-07T05:53:33;2.2;;;1.0;;
28455;SDS011;15682;56.742;38.866;2023-05-07T05:55:34;2.9;;;1.1;;
28455;SDS011;15682;56.742;38.866;2023-05-07T05:57:34;8.1;;;1.3;;
28455;SDS011;15682;56.742;38.866;2023-05-07T05:59:34;3.5;;;1.1;;
28455;SDS011;15682;56.742;38.866;2023-05-07T06:01:35;3.6;;;1.1;;
28455;SDS011;15682;56.742;38.866;2023-05-07T06:03:35;3.0;;;1.0;;
28455;SDS011;15682;56.742;38.866;2023-05-07T06:05:36;4.9;;;1.2;;
28455;SDS011;15682;56.742;38.866;2023-05-07T06:07:36;3.8;;;1.2;;
28455;SDS011;15682;56.742;38.866;2023-05-07T06:09:37;6.1;;;1.1;;
28455;SDS011;15682;56.742;38.866;2023-05-07T06:11:37;2.8;;;1.2;;
28455;SDS011;15682;56.742;38.866;2023-05-07T06:13:37;4.5;;;1.1;;
28455;SDS011;15682;56.742;38.866;2023-05-07T06:15:38;3.7;;;1.2;;
28455;SDS011;15682;56.742;38.866;2023-05-07T06:17:38;5.9;;;1.8;;
28455;SDS011;15682;56.742;38.866;2023-05-07T06:19:39;2.9;;;1.1;;
28455;SDS011;15682;56.742;38.866;2023-05-07T06:21:39;4.3;;;1.2;;
28455;SDS011;15682;56.742;38.866;2023-05-07T06:23:40;6.0;;;1.4;;
28455;SDS011;15682;56.742;38.866;2023-05-07T06:25:40;7.3;;;1.3;;
28455;SDS011;15682;56.742;38.866;2023-05-07T06:27:41;4.1;;;1.2;;
28455;SDS011;15682;56.742;38.866;2023-05-07T06:29:41;5.2;;;1.2;;
28455;SDS011;15682;56.742;38.866;2023-05-07T06:31:42;3.8;;;1.0;;
28455;SDS011;15682;56.742;38.866;2023-05-07T06:33:42;3.0;;;1.0;;
28455;SDS011;15682;56.742;38.866;2023-05-07T06:35:42;4.0;;;1.5;;
28455;SDS011;15682;56.742;38.866;2023-05-07T06:37:43;3.8;;;1.1;;
28455;SDS011;15682;56.742;38.866;2023-05-07T06:39:43;4.1;;;1.1;;
28455;SDS011;15682;56.742;38.866;2023-05-07T06:41:44;3.0;;;1.0;;
28455;SDS011;15682;56.742;38.866;2023-05-07T06:43:44;5.4;;;1.1;;
28455;SDS011;15682;56.742;38.866;2023-05-07T06:45:44;8.7;;;1.2;;
28455;SDS011;15682;56.742;38.866;2023-05-07T06:47:45;4.7;;;1.1;;
28455;SDS011;15682;56.742;38.866;2023-05-07T06:49:45;2.9;;;1.1;;
28455;SDS011;15682;56.742;38.866;2023-05-07T06:51:46;5.9;;;1.2;;
28455;SDS011;15682;56.742;38.866;2023-05-07T06:53:46;2.3;;;1.0;;
28455;SDS011;15682;56.742;38.866;2023-05-07T06:55:46;3.7;;;1.2;;
28455;SDS011;15682;56.742;38.866;2023-05-07T06:57:46;2.9;;;0.9;;
28455;SDS011;15682;56.742;38.866;2023-05-07T06:59:47;5.7;;;1.0;;
28455;SDS011;15682;56.742;38.866;2023-05-07T07:01:48;2.1;;;0.9;;
28455;SDS011;15682;56.742;38.866;2023-05-07T07:03:48;2.4;;;1.0;;
28455;SDS011;15682;56.742;38.866;2023-05-07T07:05:51;5.2;;;1.1;;
28455;SDS011;15682;56.742;38.866;2023-05-07T07:07:49;5.0;;;1.0;;
28455;SDS011;15682;56.742;38.866;2023-05-07T07:09:49;4.5;;;1.0;;
28455;SDS011;15682;56.742;38.866;2023-05-07T07:11:49;6.2;;;1.3;;
28455;SDS011;15682;56.742;38.866;2023-05-07T07:13:50;3.9;;;1.1;;
28455;SDS011;15682;56.742;38.866;2023-05-07T07:15:51;5.4;;;1.9;;
28455;SDS011;15682;56.742;38.866;2023-05-07T07:17:50;11.3;;;1.8;;
28455;SDS011;15682;56.742;38.866;2023-05-07T07:19:51;9.1;;;1.9;;
28455;SDS011;15682;56.742;38.866;2023-05-07T07:21:51;6.0;;;2.5;;
28455;SDS011;15682;56.742;38.866;2023-05-07T07:23:51;3.3;;;1.8;;
28455;SDS011;15682;56.742;38.866;2023-05-07T07:25:51;3.6;;;2.1;;
28455;SDS011;15682;56.742;38.866;2023-05-07T07:27:52;7.9;;;4.3;;
28455;SDS011;15682;56.742;38.866;2023-05-07T07:29:52;13.2;;;6.3;;
28455;SDS011;15682;56.742;38.866;2023-05-07T07:31:52;18.0;;;5.0;;
28455;SDS011;15682;56.742;38.866;2023-05-07T07:33:52;6.9;;;4.3;;
28455;SDS011;15682;56.742;38.866;2023-05-07T07:35:52;7.3;;;3.4;;
28455;SDS011;15682;56.742;38.866;2023-05-07T07:37:52;3.9;;;2.0;;
28455;SDS011;15682;56.742;38.866;2023-05-07T07:39:53;2.4;;;1.3;;
28455;SDS011;15682;56.742;38.866;2023-05-07T07:41:53;2.6;;;1.4;;
28455;SDS011;15682;56.742;38.866;2023-05-07T07:43:53;3.8;;;1.8;;
28455;SDS011;15682;56.742;38.866;2023-05-07T07:45:53;3.9;;;1.8;;
28455;SDS011;15682;56.742;38.866;2023-05-07T07:47:53;5.7;;;1.3;;
28455;SDS011;15682;56.742;38.866;2023-05-07T07:49:53;2.5;;;1.3;;
28455;SDS011;15682;56.742;38.866;2023-05-07T07:51:54;4.7;;;1.6;;
28455;SDS011;15682;56.742;38.866;2023-05-07T07:53:54;3.7;;;1.0;;
28455;SDS011;15682;56.742;38.866;2023-05-07T07:55:54;1.7;;;0.9;;
28455;SDS011;15682;56.742;38.866;2023-05-07T07:57:54;2.1;;;1.0;;
28455;SDS011;15682;56.742;38.866;2023-05-07T07:59:54;5.5;;;1.0;;
28455;SDS011;15682;56.742;38.866;2023-05-07T08:01:54;6.3;;;1.0;;
28455;SDS011;15682;56.742;38.866;2023-05-07T08:03:54;5.7;;;1.1;;
28455;SDS011;15682;56.742;38.866;2023-05-07T08:05:54;6.0;;;1.3;;
28455;SDS011;15682;56.742;38.866;2023-05-07T08:07:55;7.1;;;1.3;;
28455;SDS011;15682;56.742;38.866;2023-05-07T08:09:55;5.1;;;1.3;;
28455;SDS011;15682;56.742;38.866;2023-05-07T08:11:55;3.6;;;1.2;;
28455;SDS011;15682;56.742;38.866;2023-05-07T08:13:55;6.6;;;1.4;;
28455;SDS011;15682;56.742;38.866;2023-05-07T08:15:55;4.5;;;1.2;;
28455;SDS011;15682;56.742;38.866;2023-05-07T08:17:55;3.5;;;1.2;;
28455;SDS011;15682;56.742;38.866;2023-05-07T08:19:56;7.2;;;1.4;;
28455;SDS011;15682;56.742;38.866;2023-05-07T08:21:56;4.9;;;1.0;;
28455;SDS011;15682;56.742;38.866;2023-05-07T08:23:56;2.8;;;1.5;;
28455;SDS011;15682;56.742;38.866;2023-05-07T08:25:56;6.5;;;1.6;;
28455;SDS011;15682;56.742;38.866;2023-05-07T08:27:56;4.0;;;1.1;;
28455;SDS011;15682;56.742;38.866;2023-05-07T08:29:56;11.4;;;1.3;;
28455;SDS011;15682;56.742;38.866;2023-05-07T08:31:56;3.5;;;1.2;;
28455;SDS011;15682;56.742;38.866;2023-05-07T08:33:57;7.5;;;1.9;;
28455;SDS011;15682;56.742;38.866;2023-05-07T08:35:57;6.3;;;1.2;;
28455;SDS011;15682;56.742;38.866;2023-05-07T08:37:57;7.9;;;1.7;;
28455;SDS011;15682;56.742;38.866;2023-05-07T08:39:57;12.7;;;2.5;;
28455;SDS011;15682;56.742;38.866;2023-05-07T08:41:57;24.8;;;1.9;;
28455;SDS011;15682;56.742;38.866;2023-05-07T08:43:58;14.6;;;1.6;;
28455;SDS011;15682;56.742;38.866;2023-05-07T08:45:58;5.8;;;1.4;;
28455;SDS011;15682;56.742;38.866;2023-05-07T08:47:59;16.7;;;1.6;;
28455;SDS011;15682;56.742;38.866;2023-05-07T08:49:58;3.9;;;1.4;;
28455;SDS011;15682;56.742;38.866;2023-05-07T08:51:58;5.7;;;1.6;;
28455;SDS011;15682;56.742;38.866;2023-05-07T08:53:58;13.1;;;1.7;;
28455;SDS011;15682;56.742;38.866;2023-05-07T08:55:58;5.6;;;1.6;;
28455;SDS011;15682;56.742;38.866;2023-05-07T08:57:59;4.6;;;1.1;;
28455;SDS011;15682;56.742;38.866;2023-05-07T08:59:59;5.0;;;1.1;;
28455;SDS011;15682;56.742;38.866;2023-05-07T09:01:59;18.9;;;1.8;;
28455;SDS011;15682;56.742;38.866;2023-05-07T09:03:59;9.2;;;1.7;;
28455;SDS011;15682;56.742;38.866;2023-05-07T09:05:59;10.3;;;2.5;;
28455;SDS011;15682;56.742;38.866;2023-05-07T09:08:00;11.3;;;2.0;;
28455;SDS011;15682;56.742;38.866;2023-05-07T09:10:00;5.4;;;1.9;;
28455;SDS011;15682;56.742;38.866;2023-05-07T09:12:00;8.1;;;1.9;;
28455;SDS011;15682;56.742;38.866;2023-05-07T09:14:00;4.2;;;1.5;;
28455;SDS011;15682;56.742;38.866;2023-05-07T09:16:09;7.3;;;1.4;;
28455;SDS011;15682;56.742;38.866;2023-05-07T09:18:00;9.4;;;1.6;;
28455;SDS011;15682;56.742;38.866;2023-05-07T09:20:02;7.9;;;1.3;;
28455;SDS011;15682;56.742;38.866;2023-05-07T09:22:01;14.3;;;2.1;;
28455;SDS011;15682;56.742;38.866;2023-05-07T09:24:01;8.6;;;1.5;;
28455;SDS011;15682;56.742;38.866;2023-05-07T09:26:01;9.1;;;1.6;;
28455;SDS011;15682;56.742;38.866;2023-05-07T09:28:01;5.9;;;2.1;;
28455;SDS011;15682;56.742;38.866;2023-05-07T09:30:03;5.6;;;2.3;;
28455;SDS011;15682;56.742;38.866;2023-05-07T09:32:01;9.7;;;2.7;;
28455;SDS011;15682;56.742;38.866;2023-05-07T09:34:01;5.9;;;2.5;;
28455;SDS011;15682;56.742;38.866;2023-05-07T09:36:03;8.5;;;2.1;;
28455;SDS011;15682;56.742;38.866;2023-05-07T09:38:01;4.2;;;1.9;;
28455;SDS011;15682;56.742;38.866;2023-05-07T09:40:01;3.5;;;1.4;;
28455;SDS011;15682;56.742;38.866;2023-05-07T09:42:02;5.3;;;1.3;;
28455;SDS011;15682;56.742;38.866;2023-05-07T09:44:02;6.4;;;1.3;;
28455;SDS011;15682;56.742;38.866;2023-05-07T09:46:03;4.8;;;1.4;;
28455;SDS011;15682;56.742;38.866;2023-05-07T09:48:02;3.9;;;1.4;;
28455;SDS011;15682;56.742;38.866;2023-05-07T09:50:02;4.7;;;1.4;;
28455;SDS011;15682;56.742;38.866;2023-05-07T09:52:03;5.2;;;1.2;;
28455;SDS011;15682;56.742;38.866;2023-05-07T09:54:02;6.4;;;1.6;;
28455;SDS011;15682;56.742;38.866;2023-05-07T09:56:02;4.1;;;1.7;;
28455;SDS011;15682;56.742;38.866;2023-05-07T09:58:02;9.1;;;1.4;;
28455;SDS011;15682;56.742;38.866;2023-05-07T10:00:03;6.3;;;1.2;;
28455;SDS011;15682;56.742;38.866;2023-05-07T10:02:03;3.1;;;1.7;;
28455;SDS011;15682;56.742;38.866;2023-05-07T10:04:03;3.4;;;1.2;;
28455;SDS011;15682;56.742;38.866;2023-05-07T10:06:03;6.4;;;1.6;;
28455;SDS011;15682;56.742;38.866;2023-05-07T10:08:03;6.3;;;1.3;;
28455;SDS011;15682;56.742;38.866;2023-05-07T10:10:03;4.5;;;1.1;;
28455;SDS011;15682;56.742;38.866;2023-05-07T10:12:03;8.6;;;1.2;;
28455;SDS011;15682;56.742;38.866;2023-05-07T10:14:04;3.6;;;1.7;;
28455;SDS011;15682;56.742;38.866;2023-05-07T10:16:04;5.4;;;2.2;;
28455;SDS011;15682;56.742;38.866;2023-05-07T10:18:04;4.0;;;2.1;;
28455;SDS011;15682;56.742;38.866;2023-05-07T10:20:04;5.8;;;1.6;;
28455;SDS011;15682;56.742;38.866;2023-05-07T10:22:05;3.2;;;1.2;;
28455;SDS011;15682;56.742;38.866;2023-05-07T10:24:04;3.2;;;1.4;;
28455;SDS011;15682;56.742;38.866;2023-05-07T10:26:05;3.6;;;1.3;;
28455;SDS011;15682;56.742;38.866;2023-05-07T10:28:05;3.6;;;1.7;;
28455;SDS011;15682;56.742;38.866;2023-05-07T10:30:07;5.8;;;1.5;;
28455;SDS011;15682;56.742;38.866;2023-05-07T10:32:09;3.7;;;1.7;;
28455;SDS011;15682;56.742;38.866;2023-05-07T10:34:06;4.7;;;1.8;;
28455;SDS011;15682;56.742;38.866;2023-05-07T10:36:05;6.3;;;1.4;;
28455;SDS011;15682;56.742;38.866;2023-05-07T10:38:05;9.5;;;1.3;;
28455;SDS011;15682;56.742;38.866;2023-05-07T10:40:05;7.0;;;2.0;;
28455;SDS011;15682;56.742;38.866;2023-05-07T10:42:08;8.2;;;1.3;;
28455;SDS011;15682;56.742;38.866;2023-05-07T10:44:05;8.4;;;1.6;;
28455;SDS011;15682;56.742;38.866;2023-05-07T10:46:14;4.6;;;1.7;;
28455;SDS011;15682;56.742;38.866;2023-05-07T10:48:06;8.0;;;1.4;;
28455;SDS011;15682;56.742;38.866;2023-05-07T10:52:14;3.9;;;1.3;;
28455;SDS011;15682;56.742;38.866;2023-05-07T11:02:06;4.6;;;1.3;;
28455;SDS011;15682;56.742;38.866;2023-05-07T11:04:14;5.8;;;1.3;;
28455;SDS011;15682;56.742;38.866;2023-05-07T11:06:10;7.0;;;1.8;;
28455;SDS011;15682;56.742;38.866;2023-05-07T11:08:07;7.2;;;1.5;;
28455;SDS011;15682;56.742;38.866;2023-05-07T11:10:07;5.1;;;1.4;;
28455;SDS011;15682;56.742;38.866;2023-05-07T11:12:07;8.4;;;1.6;;
28455;SDS011;15682;56.742;38.866;2023-05-07T11:14:07;7.1;;;1.7;;
28455;SDS011;15682;56.742;38.866;2023-05-07T11:16:16;6.3;;;1.5;;
28455;SDS011;15682;56.742;38.866;2023-05-07T11:18:07;8.2;;;1.8;;
28455;SDS011;15682;56.742;38.866;2023-05-07T11:20:07;5.8;;;1.5;;
28455;SDS011;15682;56.742;38.866;2023-05-07T11:22:14;5.6;;;1.5;;
28455;SDS011;15682;56.742;38.866;2023-05-07T11:24:08;2.7;;;1.0;;
28455;SDS011;15682;56.742;38.866;2023-05-07T11:28:07;2.8;;;1.1;;
28455;SDS011;15682;56.742;38.866;2023-05-07T11:30:08;3.4;;;1.2;;
28455;SDS011;15682;56.742;38.866;2023-05-07T11:32:08;2.8;;;0.9;;
28455;SDS011;15682;56.742;38.866;2023-05-07T11:34:08;4.3;;;1.2;;
28455;SDS011;15682;56.742;38.866;2023-05-07T11:36:08;4.0;;;1.2;;
28455;SDS011;15682;56.742;38.866;2023-05-07T11:38:08;3.2;;;1.0;;
28455;SDS011;15682;56.742;38.866;2023-05-07T11:40:08;3.8;;;1.5;;
28455;SDS011;15682;56.742;38.866;2023-05-07T11:42:21;5.2;;;1.3;;
28455;SDS011;15682;56.742;38.866;2023-05-07T11:44:08;3.8;;;1.2;;
28455;SDS011;15682;56.742;38.866;2023-05-07T11:46:09;5.3;;;1.2;;
28455;SDS011;15682;56.742;38.866;2023-05-07T11:48:08;3.9;;;1.3;;
28455;SDS011;15682;56.742;38.866;2023-05-07T11:50:09;6.8;;;1.2;;
28455;SDS011;15682;56.742;38.866;2023-05-07T11:52:09;4.7;;;1.2;;
28455;SDS011;15682;56.742;38.866;2023-05-07T11:54:09;5.0;;;1.8;;
28455;SDS011;15682;56.742;38.866;2023-05-07T11:56:09;2.5;;;1.1;;
28455;SDS011;15682;56.742;38.866;2023-05-07T11:58:10;8.9;;;3.7;;
28455;SDS011;15682;56.742;38.866;2023-05-07T12:00:10;5.7;;;1.5;;
28455;SDS011;15682;56.742;38.866;2023-05-07T12:02:09;6.2;;;2.8;;
28455;SDS011;15682;56.742;38.866;2023-05-07T12:04:09;5.2;;;1.1;;
28455;SDS011;15682;56.742;38.866;2023-05-07T12:06:10;5.1;;;1.2;;
28455;SDS011;15682;56.742;38.866;2023-05-07T12:08:12;13.6;;;1.6;;
28455;SDS011;15682;56.742;38.866;2023-05-07T12:10:10;4.6;;;1.3;;
28455;SDS011;15682;56.742;38.866;2023-05-07T12:12:10;7.8;;;1.2;;
28455;SDS011;15682;56.742;38.866;2023-05-07T12:14:10;6.2;;;1.4;;
28455;SDS011;15682;56.742;38.866;2023-05-07T12:16:10;3.8;;;1.4;;
28455;SDS011;15682;56.742;38.866;2023-05-07T12:18:11;5.3;;;1.5;;
28455;SDS011;15682;56.742;38.866;2023-05-07T12:20:10;3.6;;;1.2;;
28455;SDS011;15682;56.742;38.866;2023-05-07T12:22:10;5.1;;;1.2;;
28455;SDS011;15682;56.742;38.866;2023-05-07T12:24:10;3.5;;;1.1;;
28455;SDS011;15682;56.742;38.866;2023-05-07T12:26:10;5.0;;;1.1;;